createdAt,value
2022-12-11T00:03:10.198Z,15.875
2022-12-11T00:06:53.345Z,15.812
2022-12-11T00:10:37.663Z,15.812
2022-12-11T00:14:18.131Z,15.75
2022-12-11T00:18:07.083Z,15.75
2022-12-11T00:21:47.054Z,15.687
2022-12-11T00:25:27.258Z,15.687
2022-12-11T00:29:07.386Z,15.625
2022-12-11T00:32:49.416Z,15.562
2022-12-11T00:36:29.851Z,15.562
2022-12-11T00:40:10.346Z,15.5
2022-12-11T00:43:50.478Z,15.437
2022-12-11T00:47:31.051Z,15.437
2022-12-11T00:51:18.635Z,15.375
2022-12-11T00:54:58.663Z,15.375
2022-12-11T00:58:39.217Z,15.312
2022-12-11T01:03:06.458Z,15.312
2022-12-11T01:06:47.350Z,15.25
2022-12-11T01:10:30.861Z,15.25
2022-12-11T01:14:11.163Z,15.25
2022-12-11T01:17:52.272Z,15.187
2022-12-11T01:21:32.351Z,15.187
2022-12-11T01:25:12.703Z,15.187
2022-12-11T01:28:53.044Z,15.125
2022-12-11T01:32:33.677Z,15.125
2022-12-11T01:36:13.690Z,15.125
2022-12-11T01:39:53.577Z,15.062
2022-12-11T01:43:33.577Z,15.062
2022-12-11T01:47:18.392Z,15.062
2022-12-11T01:51:00.286Z,15.062
2022-12-11T01:54:40.263Z,15.0
2022-12-11T01:58:20.267Z,15.0
2022-12-11T02:03:07.615Z,15.0
2022-12-11T02:06:48.340Z,14.937
2022-12-11T02:10:29.437Z,14.937
2022-12-11T02:14:09.677Z,14.937
2022-12-11T02:17:50.642Z,15.0
2022-12-11T02:21:30.939Z,15.187
2022-12-11T02:25:11.286Z,15.312
2022-12-11T02:28:51.431Z,15.312
2022-12-11T02:32:31.738Z,15.375
2022-12-11T02:36:11.767Z,15.312
2022-12-11T02:39:51.555Z,15.312
2022-12-11T02:43:32.007Z,15.312
2022-12-11T02:47:12.168Z,15.25
2022-12-11T02:50:52.476Z,15.187
2022-12-11T02:54:32.569Z,15.187
2022-12-11T02:58:12.624Z,15.125
2022-12-11T03:03:07.628Z,15.062
2022-12-11T03:06:48.132Z,15.062
2022-12-11T03:10:28.204Z,15.0
2022-12-11T03:14:13.732Z,15.0
2022-12-11T03:17:54.581Z,15.0
2022-12-11T03:21:34.492Z,15.0
2022-12-11T03:25:14.693Z,14.937
2022-12-11T03:29:02.113Z,15.0
2022-12-11T03:32:43.126Z,15.125
2022-12-11T03:36:39.945Z,15.25
2022-12-11T03:40:19.992Z,15.312
2022-12-11T03:43:59.910Z,15.375
2022-12-11T03:47:41.179Z,15.312
2022-12-11T03:51:21.115Z,15.312
2022-12-11T03:55:01.141Z,15.312
2022-12-11T03:58:42.114Z,15.25
2022-12-11T04:03:11.377Z,15.25
2022-12-11T04:06:54.507Z,15.25
2022-12-11T04:10:35.094Z,15.187
2022-12-11T04:14:15.200Z,15.125
2022-12-11T04:17:56.129Z,15.125
2022-12-11T04:21:39.435Z,15.062
2022-12-11T04:25:20.096Z,15.0
2022-12-11T04:29:00.365Z,15.0
2022-12-11T04:32:41.178Z,14.937
2022-12-11T04:36:21.173Z,15.0
2022-12-11T04:40:01.006Z,15.125
2022-12-11T04:43:40.978Z,15.187
2022-12-11T04:47:21.585Z,15.187
2022-12-11T04:51:01.923Z,15.187
2022-12-11T04:54:41.998Z,15.187
2022-12-11T04:58:22.409Z,15.062
2022-12-11T05:03:07.376Z,15.062
2022-12-11T05:08:36.332Z,14.937
2022-12-11T05:12:24.634Z,14.937
2022-12-11T05:16:05.245Z,15.0
2022-12-11T05:19:45.707Z,15.187
2022-12-11T05:23:26.872Z,15.312
2022-12-11T05:27:07.003Z,15.375
2022-12-11T05:30:48.360Z,15.375
2022-12-11T05:34:29.269Z,15.312
2022-12-11T05:38:09.479Z,15.25
2022-12-11T05:41:49.652Z,15.125
2022-12-11T05:45:30.593Z,15.062
2022-12-11T05:49:11.744Z,15.0
2022-12-11T05:53:00.026Z,14.937
2022-12-11T05:56:40.536Z,14.937
2022-12-11T06:03:15.482Z,15.187
2022-12-11T06:06:56.027Z,15.25
2022-12-11T06:10:36.244Z,15.312
2022-12-11T06:14:18.628Z,15.312
2022-12-11T06:18:00.358Z,15.25
2022-12-11T06:21:46.517Z,15.187
2022-12-11T06:25:26.857Z,15.125
2022-12-11T06:29:11.002Z,15.062
2022-12-11T06:33:08.087Z,15.0
2022-12-11T06:36:49.134Z,14.937
2022-12-11T06:40:29.482Z,14.937
2022-12-11T06:44:09.607Z,15.062
2022-12-11T06:47:56.244Z,15.187
2022-12-11T06:51:36.390Z,15.312
2022-12-11T06:55:16.482Z,15.312
2022-12-11T06:58:56.872Z,15.312
2022-12-11T07:03:07.702Z,15.187
2022-12-11T07:06:48.916Z,15.125
2022-12-11T07:10:37.763Z,15.062
2022-12-11T07:14:17.937Z,15.0
2022-12-11T07:18:03.273Z,14.875
2022-12-11T07:21:43.804Z,14.937
2022-12-11T07:25:29.879Z,15.062
2022-12-11T07:29:10.313Z,15.187
2022-12-11T07:32:52.353Z,15.312
2022-12-11T07:36:38.266Z,15.312
2022-12-11T07:40:18.338Z,15.25
2022-12-11T07:43:58.448Z,15.187
2022-12-11T07:47:39.542Z,15.125
2022-12-11T07:51:26.647Z,15.062
2022-12-11T07:55:06.814Z,14.937
2022-12-11T07:58:54.507Z,14.937
2022-12-11T08:03:14.826Z,15.0
2022-12-11T08:06:55.248Z,15.187
2022-12-11T08:10:44.165Z,15.25
2022-12-11T08:14:24.506Z,15.25
2022-12-11T08:18:17.702Z,15.25
2022-12-11T08:21:58.028Z,15.187
2022-12-11T08:25:45.366Z,15.125
2022-12-11T08:29:25.821Z,15.062
2022-12-11T08:33:06.981Z,14.937
2022-12-11T08:36:47.465Z,14.937
2022-12-11T08:40:27.714Z,15.0
2022-12-11T08:44:11.646Z,15.125
2022-12-11T08:47:57.023Z,15.25
2022-12-11T08:51:37.044Z,15.25
2022-12-11T08:55:17.284Z,15.25
2022-12-11T08:58:57.502Z,15.25
2022-12-11T09:03:12.535Z,15.125
2022-12-11T09:06:53.510Z,15.062
2022-12-11T09:10:42.143Z,15.0
2022-12-11T09:14:28.089Z,14.937
2022-12-11T09:18:08.945Z,14.937
2022-12-11T09:21:54.193Z,15.062
2022-12-11T09:25:34.676Z,15.187
2022-12-11T09:29:23.301Z,15.25
2022-12-11T09:33:04.140Z,15.25
2022-12-11T09:36:44.932Z,15.187
2022-12-11T09:40:33.428Z,15.125
2022-12-11T09:44:13.744Z,15.062
2022-12-11T09:48:03.593Z,15.0
2022-12-11T09:51:43.971Z,14.937
2022-12-11T09:55:25.831Z,15.0
2022-12-11T09:59:06.259Z,15.062
2022-12-11T10:03:06.914Z,15.187
2022-12-11T10:06:53.707Z,15.25
2022-12-11T10:10:34.124Z,15.25
2022-12-11T10:14:22.709Z,15.187
2022-12-11T10:18:05.371Z,15.187
2022-12-11T10:21:45.691Z,15.125
2022-12-11T10:25:58.200Z,15.0
2022-12-11T10:29:38.582Z,14.937
2022-12-11T10:33:23.803Z,14.937
2022-12-11T10:37:04.491Z,15.125
2022-12-11T10:40:44.713Z,15.187
2022-12-11T10:44:31.436Z,15.25
2022-12-11T10:48:12.933Z,15.25
2022-12-11T10:51:52.999Z,15.187
2022-12-11T10:55:40.583Z,15.125
2022-12-11T10:59:24.038Z,15.062
2022-12-11T11:03:07.380Z,15.0
2022-12-11T11:06:48.268Z,14.937
2022-12-11T11:10:29.027Z,14.937
2022-12-11T11:14:11.697Z,15.125
2022-12-11T11:18:13.529Z,15.25
2022-12-11T11:21:54.147Z,15.25
2022-12-11T11:25:42.683Z,15.25
2022-12-11T11:30:12.234Z,15.187
2022-12-11T11:33:53.112Z,15.187
2022-12-11T11:37:37.363Z,15.062
2022-12-11T11:41:25.557Z,15.0
2022-12-11T11:45:05.735Z,14.937
2022-12-11T11:48:54.191Z,14.937
2022-12-11T11:52:34.409Z,15.187
2022-12-11T11:56:14.815Z,15.375
2022-12-11T11:59:55.046Z,15.375
2022-12-11T12:03:11.951Z,15.312
2022-12-11T12:06:58.183Z,15.25
2022-12-11T12:10:39.700Z,15.187
2022-12-11T12:15:22.209Z,15.125
2022-12-11T12:19:47.171Z,15.0
2022-12-11T12:23:31.969Z,14.937
2022-12-11T12:27:50.061Z,15.0
2022-12-11T12:31:31.965Z,15.187
2022-12-11T12:35:12.709Z,15.312
2022-12-11T12:39:01.197Z,15.312
2022-12-11T12:42:50.217Z,15.25
2022-12-11T12:46:31.761Z,15.187
2022-12-11T12:50:18.133Z,15.187
2022-12-11T12:53:58.369Z,15.062
2022-12-11T12:57:47.459Z,15.0
2022-12-11T13:03:08.851Z,14.937
2022-12-11T13:07:28.432Z,15.062
2022-12-11T13:11:09.579Z,15.312
2022-12-11T13:14:50.235Z,15.375
2022-12-11T13:18:30.907Z,15.312
2022-12-11T13:22:18.031Z,15.25
2022-12-11T13:26:05.023Z,15.187
2022-12-11T13:29:45.185Z,15.187
2022-12-11T13:33:32.033Z,15.062
2022-12-11T13:37:13.986Z,15.0
2022-12-11T13:40:54.204Z,14.937
2022-12-11T13:44:39.733Z,15.062
2022-12-11T13:48:20.636Z,15.125
2022-12-11T13:52:00.928Z,15.125
2022-12-11T13:55:46.474Z,15.187
2022-12-11T13:59:26.598Z,15.187
2022-12-11T14:03:12.630Z,15.125
2022-12-11T14:07:01.385Z,15.062
2022-12-11T14:10:42.770Z,15.0
2022-12-11T14:14:28.436Z,14.937
2022-12-11T14:18:16.320Z,14.937
2022-12-11T14:21:56.938Z,15.062
2022-12-11T14:25:41.102Z,15.187
2022-12-11T14:29:21.501Z,15.187
2022-12-11T14:33:02.826Z,15.187
2022-12-11T14:36:43.134Z,15.125
2022-12-11T14:40:23.393Z,15.062
2022-12-11T14:44:03.486Z,15.0
2022-12-11T14:47:44.360Z,14.875
2022-12-11T14:51:32.896Z,14.937
2022-12-11T14:55:13.430Z,15.125
2022-12-11T14:58:53.955Z,15.187
2022-12-11T15:03:08.932Z,15.187
2022-12-11T15:06:49.032Z,15.125
2022-12-11T15:10:30.028Z,15.062
2022-12-11T15:14:10.285Z,15.0
2022-12-11T15:17:52.919Z,14.937
2022-12-11T15:21:34.472Z,14.875
2022-12-11T15:25:14.596Z,15.0
2022-12-11T15:28:55.054Z,15.187
2022-12-11T15:32:36.252Z,15.187
2022-12-11T15:36:23.008Z,15.187
2022-12-11T15:40:03.396Z,15.125
2022-12-11T15:43:44.301Z,15.062
2022-12-11T15:47:32.203Z,15.0
2022-12-11T15:51:12.620Z,14.937
2022-12-11T15:54:52.981Z,14.937
2022-12-11T15:58:33.354Z,15.062
2022-12-11T16:03:07.350Z,15.187
2022-12-11T16:06:54.101Z,15.187
2022-12-11T16:10:34.819Z,15.125
2022-12-11T16:14:15.122Z,15.125
2022-12-11T16:18:02.504Z,15.062
2022-12-11T16:21:47.863Z,15.0
2022-12-11T16:25:28.193Z,14.875
2022-12-11T16:29:14.856Z,14.937
2022-12-11T16:32:55.921Z,15.187
2022-12-11T16:36:43.101Z,15.25
2022-12-11T16:40:29.028Z,15.25
2022-12-11T16:44:09.083Z,15.187
2022-12-11T16:47:50.363Z,15.125
2022-12-11T16:51:30.636Z,15.062
2022-12-11T16:55:16.697Z,14.937
2022-12-11T16:58:57.359Z,14.937
2022-12-11T17:03:08.472Z,15.125
2022-12-11T17:08:36.131Z,15.187
2022-12-11T17:12:16.427Z,15.125
2022-12-11T17:16:03.277Z,15.062
2022-12-11T17:19:43.734Z,15.125
2022-12-11T17:23:31.321Z,15.312
2022-12-11T17:27:11.684Z,15.75
2022-12-11T17:30:52.114Z,16.062
2022-12-11T17:34:37.854Z,16.375
2022-12-11T17:38:18.832Z,16.625
2022-12-11T17:42:07.083Z,17.0
2022-12-11T17:45:47.921Z,17.25
2022-12-11T17:49:36.843Z,17.625
2022-12-11T17:53:27.618Z,17.812
2022-12-11T17:57:08.992Z,18.125
2022-12-11T18:03:11.790Z,18.125
2022-12-11T18:06:53.119Z,17.875
2022-12-11T18:10:41.223Z,17.875
2022-12-11T18:14:21.526Z,18.0
2022-12-11T18:18:02.863Z,18.125
2022-12-11T18:21:43.060Z,17.875
2022-12-11T18:25:30.531Z,17.812
2022-12-11T18:29:11.177Z,17.812
2022-12-11T18:32:51.861Z,18.0
2022-12-11T18:36:32.161Z,18.25
2022-12-11T18:40:17.540Z,18.125
2022-12-11T18:44:30.347Z,17.875
2022-12-11T18:48:11.251Z,17.75
2022-12-11T18:51:58.939Z,17.812
2022-12-11T18:55:39.540Z,17.937
2022-12-11T18:59:26.249Z,18.312
2022-12-11T19:03:07.366Z,18.437
2022-12-11T19:06:59.981Z,18.25
2022-12-11T19:10:41.380Z,18.0
2022-12-11T19:14:21.746Z,17.875
2022-12-11T19:18:07.654Z,17.812
2022-12-11T19:22:47.504Z,17.875
2022-12-11T19:26:27.695Z,18.0
2022-12-11T19:30:08.527Z,18.0
2022-12-11T19:33:49.239Z,17.937
2022-12-11T19:37:29.644Z,17.812
2022-12-11T19:41:09.835Z,17.875
2022-12-11T19:44:50.136Z,17.937
2022-12-11T19:48:30.977Z,18.187
2022-12-11T19:52:11.556Z,18.062
2022-12-11T19:55:52.718Z,17.937
2022-12-11T19:59:33.317Z,17.937
2022-12-11T20:03:07.862Z,17.937
2022-12-11T20:06:49.050Z,18.0
2022-12-11T20:11:17.636Z,18.062
2022-12-11T20:14:59.074Z,18.062
2022-12-11T20:19:07.598Z,17.937
2022-12-11T20:22:47.878Z,17.812
2022-12-11T20:26:36.143Z,17.875
2022-12-11T20:30:16.622Z,17.937
2022-12-11T20:34:03.348Z,18.062
2022-12-11T20:37:44.003Z,18.062
2022-12-11T20:41:28.905Z,18.0
2022-12-11T20:45:15.303Z,18.0
2022-12-11T20:48:56.235Z,17.937
2022-12-11T20:52:36.282Z,17.937
2022-12-11T20:56:16.723Z,18.062
2022-12-11T20:59:57.048Z,18.125
2022-12-11T21:03:07.615Z,18.125
2022-12-11T21:06:48.435Z,18.062
2022-12-11T21:10:29.163Z,17.937
2022-12-11T21:14:17.176Z,17.875
2022-12-11T21:17:58.569Z,17.875
2022-12-11T21:21:44.459Z,17.875
2022-12-11T21:25:24.870Z,17.937
2022-12-11T21:29:12.716Z,18.062
2022-12-11T21:32:53.542Z,18.125
2022-12-11T21:36:34.776Z,18.062
2022-12-11T21:40:22.293Z,17.875
2022-12-11T21:45:59.132Z,17.812
2022-12-11T21:49:41.573Z,18.062
2022-12-11T21:53:33.590Z,18.125
2022-12-11T21:57:13.896Z,18.062
2022-12-11T22:03:13.222Z,17.812
2022-12-11T22:06:54.383Z,17.75
2022-12-11T22:10:35.245Z,17.687
2022-12-11T22:14:22.932Z,17.5
2022-12-11T22:18:04.106Z,17.312
2022-12-11T22:21:44.690Z,17.187
2022-12-11T22:25:24.513Z,17.0
2022-12-11T22:29:09.791Z,16.875
2022-12-11T22:32:50.264Z,16.687
2022-12-11T22:36:30.445Z,16.562
2022-12-11T22:40:10.769Z,16.437
2022-12-11T22:43:59.417Z,16.375
2022-12-11T22:47:40.832Z,16.25
2022-12-11T22:51:21.168Z,16.187
2022-12-11T22:55:01.420Z,16.062
2022-12-11T22:58:48.024Z,16.0
2022-12-11T23:03:07.529Z,15.937
2022-12-11T23:06:53.965Z,15.875
2022-12-11T23:10:35.768Z,15.875
2022-12-11T23:14:15.750Z,15.812
2022-12-11T23:17:56.837Z,15.75
2022-12-11T23:21:37.175Z,15.75
2022-12-11T23:25:17.381Z,15.625
2022-12-11T23:28:57.725Z,15.562
2022-12-11T23:32:38.676Z,15.5
2022-12-11T23:36:18.822Z,15.5
2022-12-11T23:39:59.090Z,15.437
2022-12-11T23:43:39.506Z,15.375
2022-12-11T23:47:20.278Z,15.312
2022-12-11T23:51:00.236Z,15.312
2022-12-11T23:54:40.343Z,15.25
2022-12-11T23:58:20.487Z,15.187
